sensor_id;sensor_type;location;lat;lon;timestamp;pressure;altitude;pressure_sealevel;temperature;humidity
30819;BME280;17546;42.674;23.284;2023-07-09T00:01:40;95155.31;;;26.75;34.81
30819;BME280;17546;42.674;23.284;2023-07-09T00:04:11;95153.19;;;26.56;34.50
30819;BME280;17546;42.674;23.284;2023-07-09T00:06:37;95125.31;;;26.26;35.25
30819;BME280;17546;42.674;23.284;2023-07-09T00:09:03;95141.75;;;26.27;35.16
30819;BME280;17546;42.674;23.284;2023-07-09T00:11:30;95153.00;;;26.35;35.34
30819;BME280;17546;42.674;23.284;2023-07-09T00:13:55;95142.22;;;26.33;35.13
30819;BME280;17546;42.674;23.284;2023-07-09T00:16:25;95144.75;;;26.39;34.83
30819;BME280;17546;42.674;23.284;2023-07-09T00:18:51;95144.59;;;26.27;34.92
30819;BME280;17546;42.674;23.284;2023-07-09T00:21:18;95111.59;;;25.95;35.01
30819;BME280;17546;42.674;23.284;2023-07-09T00:23:45;95105.94;;;25.95;35.30
30819;BME280;17546;42.674;23.284;2023-07-09T00:26:14;95150.31;;;26.37;34.90
30819;BME280;17546;42.674;23.284;2023-07-09T00:28:41;95148.09;;;25.98;35.47
30819;BME280;17546;42.674;23.284;2023-07-09T00:31:16;95135.09;;;25.95;35.35
30819;BME280;17546;42.674;23.284;2023-07-09T00:33:42;95149.28;;;26.05;35.66
30819;BME280;17546;42.674;23.284;2023-07-09T00:36:14;95111.06;;;25.79;35.70
30819;BME280;17546;42.674;23.284;2023-07-09T00:38:40;95150.81;;;26.06;35.56
30819;BME280;17546;42.674;23.284;2023-07-09T00:41:15;95140.00;;;25.95;35.50
30819;BME280;17546;42.674;23.284;2023-07-09T00:43:44;95137.63;;;26.01;35.54
30819;BME280;17546;42.674;23.284;2023-07-09T00:48:49;95131.84;;;26.09;35.17
30819;BME280;17546;42.674;23.284;2023-07-09T00:51:20;95134.63;;;25.99;35.73
30819;BME280;17546;42.674;23.284;2023-07-09T00:53:46;95141.41;;;26.13;35.47
30819;BME280;17546;42.674;23.284;2023-07-09T00:56:19;95097.72;;;25.89;35.33
30819;BME280;17546;42.674;23.284;2023-07-09T00:58:49;95133.63;;;26.04;35.48
30819;BME280;17546;42.674;23.284;2023-07-09T01:01:18;95121.03;;;25.70;35.68
30819;BME280;17546;42.674;23.284;2023-07-09T01:03:46;95119.94;;;25.56;36.16
30819;BME280;17546;42.674;23.284;2023-07-09T01:06:13;95120.84;;;25.59;35.96
30819;BME280;17546;42.674;23.284;2023-07-09T01:08:40;95110.41;;;25.61;35.96
30819;BME280;17546;42.674;23.284;2023-07-09T01:11:20;95113.41;;;25.63;35.70
30819;BME280;17546;42.674;23.284;2023-07-09T01:13:55;95082.00;;;25.24;35.73
30819;BME280;17546;42.674;23.284;2023-07-09T01:16:24;95093.66;;;25.55;35.63
30819;BME280;17546;42.674;23.284;2023-07-09T01:18:51;95106.63;;;25.49;35.74
30819;BME280;17546;42.674;23.284;2023-07-09T01:21:17;95076.09;;;25.12;35.97
30819;BME280;17546;42.674;23.284;2023-07-09T01:23:44;95091.97;;;25.43;35.77
30819;BME280;17546;42.674;23.284;2023-07-09T01:26:16;95118.22;;;25.70;35.33
30819;BME280;17546;42.674;23.284;2023-07-09T01:28:42;95107.88;;;25.65;35.68
30819;BME280;17546;42.674;23.284;2023-07-09T01:31:10;95096.88;;;25.69;35.55
30819;BME280;17546;42.674;23.284;2023-07-09T01:33:37;95104.78;;;25.71;35.54
30819;BME280;17546;42.674;23.284;2023-07-09T01:36:05;95100.56;;;25.62;35.65
30819;BME280;17546;42.674;23.284;2023-07-09T01:38:32;95107.03;;;25.72;35.40
30819;BME280;17546;42.674;23.284;2023-07-09T01:40:57;95104.56;;;25.59;35.37
30819;BME280;17546;42.674;23.284;2023-07-09T01:43:23;95082.09;;;25.44;35.82
30819;BME280;17546;42.674;23.284;2023-07-09T01:45:50;95111.09;;;25.25;36.07
30819;BME280;17546;42.674;23.284;2023-07-09T01:48:17;95118.22;;;25.70;35.66
30819;BME280;17546;42.674;23.284;2023-07-09T01:50:43;95111.84;;;25.25;36.06
30819;BME280;17546;42.674;23.284;2023-07-09T01:53:13;95120.09;;;25.58;35.77
30819;BME280;17546;42.674;23.284;2023-07-09T01:55:40;95125.72;;;25.75;35.61
30819;BME280;17546;42.674;23.284;2023-07-09T01:58:05;95124.09;;;25.82;35.44
30819;BME280;17546;42.674;23.284;2023-07-09T02:00:33;95086.19;;;25.23;36.06
30819;BME280;17546;42.674;23.284;2023-07-09T02:03:00;95096.94;;;25.52;35.52
30819;BME280;17546;42.674;23.284;2023-07-09T02:05:30;95129.31;;;25.49;35.73
30819;BME280;17546;42.674;23.284;2023-07-09T02:07:55;95109.31;;;25.47;35.56
30819;BME280;17546;42.674;23.284;2023-07-09T02:10:21;95130.91;;;25.69;35.44
30819;BME280;17546;42.674;23.284;2023-07-09T02:12:47;95120.53;;;25.27;35.95
30819;BME280;17546;42.674;23.284;2023-07-09T02:15:13;95121.69;;;25.24;36.37
30819;BME280;17546;42.674;23.284;2023-07-09T02:17:39;95117.97;;;25.49;35.75
30819;BME280;17546;42.674;23.284;2023-07-09T02:20:05;95129.38;;;25.68;35.56
30819;BME280;17546;42.674;23.284;2023-07-09T02:22:36;95100.72;;;25.37;35.79
30819;BME280;17546;42.674;23.284;2023-07-09T02:25:02;95125.25;;;25.42;35.79
30819;BME280;17546;42.674;23.284;2023-07-09T02:27:28;95099.13;;;25.44;35.60
30819;BME280;17546;42.674;23.284;2023-07-09T02:29:53;95127.59;;;25.63;35.58
30819;BME280;17546;42.674;23.284;2023-07-09T02:32:25;95139.78;;;25.56;35.46
30819;BME280;17546;42.674;23.284;2023-07-09T02:34:54;95118.72;;;25.49;35.65
30819;BME280;17546;42.674;23.284;2023-07-09T02:37:22;95139.97;;;25.58;35.64
30819;BME280;17546;42.674;23.284;2023-07-09T02:39:48;95120.84;;;25.14;36.28
30819;BME280;17546;42.674;23.284;2023-07-09T02:42:15;95147.69;;;24.95;36.83
30819;BME280;17546;42.674;23.284;2023-07-09T02:44:42;95150.47;;;25.21;36.29
30819;BME280;17546;42.674;23.284;2023-07-09T02:47:08;95145.72;;;24.88;36.65
30819;BME280;17546;42.674;23.284;2023-07-09T02:49:34;95124.72;;;24.74;36.73
30819;BME280;17546;42.674;23.284;2023-07-09T02:51:59;95113.63;;;25.03;36.20
30819;BME280;17546;42.674;23.284;2023-07-09T02:54:25;95162.47;;;25.29;35.90
30819;BME280;17546;42.674;23.284;2023-07-09T02:56:50;95159.69;;;25.04;36.45
30819;BME280;17546;42.674;23.284;2023-07-09T02:59:16;95133.34;;;24.93;36.45
30819;BME280;17546;42.674;23.284;2023-07-09T03:01:42;95161.22;;;24.87;36.90
30819;BME280;17546;42.674;23.284;2023-07-09T03:04:08;95157.22;;;24.90;36.47
30819;BME280;17546;42.674;23.284;2023-07-09T03:06:35;95125.66;;;24.34;37.25
30819;BME280;17546;42.674;23.284;2023-07-09T03:09:02;95164.66;;;24.43;37.20
30819;BME280;17546;42.674;23.284;2023-07-09T03:11:29;95168.28;;;24.36;37.63
30819;BME280;17546;42.674;23.284;2023-07-09T03:13:57;95166.75;;;24.60;37.21
30819;BME280;17546;42.674;23.284;2023-07-09T03:16:29;95171.88;;;24.97;36.67
30819;BME280;17546;42.674;23.284;2023-07-09T03:18:55;95159.94;;;24.63;37.06
30819;BME280;17546;42.674;23.284;2023-07-09T03:21:25;95173.88;;;24.86;37.14
30819;BME280;17546;42.674;23.284;2023-07-09T03:23:51;95174.38;;;24.75;36.97
30819;BME280;17546;42.674;23.284;2023-07-09T03:26:16;95176.13;;;24.88;36.81
30819;BME280;17546;42.674;23.284;2023-07-09T03:28:42;95151.63;;;24.40;37.21
30819;BME280;17546;42.674;23.284;2023-07-09T03:31:07;95168.03;;;24.67;37.17
30819;BME280;17546;42.674;23.284;2023-07-09T03:33:33;95144.72;;;24.59;36.90
30819;BME280;17546;42.674;23.284;2023-07-09T03:35:58;95184.03;;;24.72;37.17
30819;BME280;17546;42.674;23.284;2023-07-09T03:38:23;95179.78;;;24.81;37.02
30819;BME280;17546;42.674;23.284;2023-07-09T03:40:52;95177.28;;;24.42;37.87
30819;BME280;17546;42.674;23.284;2023-07-09T03:43:18;95171.50;;;24.58;37.41
30819;BME280;17546;42.674;23.284;2023-07-09T03:45:45;95138.09;;;24.39;37.60
30819;BME280;17546;42.674;23.284;2023-07-09T03:48:11;95166.94;;;24.80;37.51
30819;BME280;17546;42.674;23.284;2023-07-09T03:50:37;95184.84;;;25.17;37.45
30819;BME280;17546;42.674;23.284;2023-07-09T03:53:03;95152.53;;;25.03;37.15
30819;BME280;17546;42.674;23.284;2023-07-09T03:55:31;95166.03;;;25.12;37.22
30819;BME280;17546;42.674;23.284;2023-07-09T03:57:56;95190.38;;;25.15;36.90
30819;BME280;17546;42.674;23.284;2023-07-09T04:00:22;95194.78;;;25.08;37.30
30819;BME280;17546;42.674;23.284;2023-07-09T04:02:49;95185.88;;;25.29;37.17
30819;BME280;17546;42.674;23.284;2023-07-09T04:05:14;95186.88;;;25.07;37.05
30819;BME280;17546;42.674;23.284;2023-07-09T04:07:40;95195.63;;;25.19;37.17
30819;BME280;17546;42.674;23.284;2023-07-09T04:10:06;95191.97;;;25.26;36.93
30819;BME280;17546;42.674;23.284;2023-07-09T04:12:32;95179.19;;;25.17;36.88
30819;BME280;17546;42.674;23.284;2023-07-09T04:14:58;95208.38;;;25.10;37.00
30819;BME280;17546;42.674;23.284;2023-07-09T04:17:23;95166.50;;;24.48;37.84
30819;BME280;17546;42.674;23.284;2023-07-09T04:19:52;95205.53;;;24.75;37.80
30819;BME280;17546;42.674;23.284;2023-07-09T04:22:18;95205.28;;;24.81;37.77
30819;BME280;17546;42.674;23.284;2023-07-09T04:24:44;95211.53;;;24.97;37.69
30819;BME280;17546;42.674;23.284;2023-07-09T04:27:09;95208.13;;;24.98;37.75
30819;BME280;17546;42.674;23.284;2023-07-09T04:29:35;95168.28;;;24.79;37.66
30819;BME280;17546;42.674;23.284;2023-07-09T04:32:02;95207.38;;;24.98;37.74
30819;BME280;17546;42.674;23.284;2023-07-09T04:34:28;95208.72;;;25.14;37.63
30819;BME280;17546;42.674;23.284;2023-07-09T04:36:53;95203.56;;;25.03;37.40
30819;BME280;17546;42.674;23.284;2023-07-09T04:39:19;95210.28;;;24.90;38.05
30819;BME280;17546;42.674;23.284;2023-07-09T04:41:44;95218.69;;;24.80;38.56
30819;BME280;17546;42.674;23.284;2023-07-09T04:44:09;95220.84;;;24.72;38.29
30819;BME280;17546;42.674;23.284;2023-07-09T04:46:35;95119.69;;;24.05;38.23
30819;BME280;17546;42.674;23.284;2023-07-09T04:49:00;95213.34;;;24.84;37.43
30819;BME280;17546;42.674;23.284;2023-07-09T04:51:26;95214.72;;;24.83;38.18
30819;BME280;17546;42.674;23.284;2023-07-09T04:53:52;95209.38;;;25.40;37.41
30819;BME280;17546;42.674;23.284;2023-07-09T04:56:18;95197.44;;;25.41;37.49
30819;BME280;17546;42.674;23.284;2023-07-09T04:58:43;95200.41;;;25.33;37.09
30819;BME280;17546;42.674;23.284;2023-07-09T05:01:09;95213.81;;;25.33;37.03
30819;BME280;17546;42.674;23.284;2023-07-09T05:03:34;95189.44;;;25.12;37.19
30819;BME280;17546;42.674;23.284;2023-07-09T05:06:00;95194.56;;;25.31;37.63
30819;BME280;17546;42.674;23.284;2023-07-09T05:08:25;95209.72;;;24.91;36.97
30819;BME280;17546;42.674;23.284;2023-07-09T05:10:51;95227.72;;;25.39;37.07
30819;BME280;17546;42.674;23.284;2023-07-09T05:13:18;95197.91;;;25.20;37.58
30819;BME280;17546;42.674;23.284;2023-07-09T05:15:45;95222.53;;;25.62;37.07
30819;BME280;17546;42.674;23.284;2023-07-09T05:18:13;95232.50;;;25.81;36.84
30819;BME280;17546;42.674;23.284;2023-07-09T05:20:39;95222.41;;;25.25;37.71
30819;BME280;17546;42.674;23.284;2023-07-09T05:23:05;95231.09;;;25.89;37.05
30819;BME280;17546;42.674;23.284;2023-07-09T05:25:31;95233.69;;;25.77;36.84
30819;BME280;17546;42.674;23.284;2023-07-09T05:27:56;95224.47;;;25.87;36.70
30819;BME280;17546;42.674;23.284;2023-07-09T05:30:22;95198.31;;;25.34;37.02
30819;BME280;17546;42.674;23.284;2023-07-09T05:32:47;95224.34;;;25.67;36.75
30819;BME280;17546;42.674;23.284;2023-07-09T05:35:13;95216.66;;;25.77;36.98
30819;BME280;17546;42.674;23.284;2023-07-09T05:37:39;95189.16;;;25.53;37.16
30819;BME280;17546;42.674;23.284;2023-07-09T05:40:06;95193.78;;;25.31;37.27
30819;BME280;17546;42.674;23.284;2023-07-09T05:42:32;95193.38;;;25.17;37.55
30819;BME280;17546;42.674;23.284;2023-07-09T05:44:58;95231.16;;;25.37;37.25
30819;BME280;17546;42.674;23.284;2023-07-09T05:47:24;95206.50;;;25.57;37.32
30819;BME280;17546;42.674;23.284;2023-07-09T05:49:49;95190.94;;;25.48;37.64
30819;BME280;17546;42.674;23.284;2023-07-09T05:52:20;95193.69;;;25.56;37.72
30819;BME280;17546;42.674;23.284;2023-07-09T05:54:48;95216.94;;;25.54;37.78
30819;BME280;17546;42.674;23.284;2023-07-09T05:57:13;95232.06;;;25.22;37.86
30819;BME280;17546;42.674;23.284;2023-07-09T05:59:39;95227.22;;;25.50;37.34
30819;BME280;17546;42.674;23.284;2023-07-09T06:02:10;95169.38;;;25.18;37.38
30819;BME280;17546;42.674;23.284;2023-07-09T06:04:36;95214.41;;;25.76;37.15
30819;BME280;17546;42.674;23.284;2023-07-09T06:07:02;95239.41;;;25.43;37.50
30819;BME280;17546;42.674;23.284;2023-07-09T06:09:29;95237.03;;;24.79;39.04
30819;BME280;17546;42.674;23.284;2023-07-09T06:11:54;95219.09;;;25.64;37.64
30819;BME280;17546;42.674;23.284;2023-07-09T06:14:20;95215.22;;;25.24;38.09
30819;BME280;17546;42.674;23.284;2023-07-09T06:16:45;95208.03;;;25.58;37.59
30819;BME280;17546;42.674;23.284;2023-07-09T06:19:11;95220.84;;;26.04;37.66
30819;BME280;17546;42.674;23.284;2023-07-09T06:21:36;95214.94;;;25.65;37.95
30819;BME280;17546;42.674;23.284;2023-07-09T06:24:02;95176.59;;;25.46;37.74
30819;BME280;17546;42.674;23.284;2023-07-09T06:26:27;95200.34;;;25.51;37.93
30819;BME280;17546;42.674;23.284;2023-07-09T06:28:53;95222.00;;;26.28;36.92
30819;BME280;17546;42.674;23.284;2023-07-09T06:31:19;95219.97;;;26.48;36.88
30819;BME280;17546;42.674;23.284;2023-07-09T06:33:49;95219.72;;;27.39;35.44
30819;BME280;17546;42.674;23.284;2023-07-09T06:36:16;95218.63;;;27.73;34.88
30819;BME280;17546;42.674;23.284;2023-07-09T06:38:41;95213.50;;;28.01;34.31
30819;BME280;17546;42.674;23.284;2023-07-09T06:41:07;95177.09;;;26.53;35.89
30819;BME280;17546;42.674;23.284;2023-07-09T06:43:32;95203.81;;;27.07;36.32
30819;BME280;17546;42.674;23.284;2023-07-09T06:45:59;95209.25;;;27.41;35.53
30819;BME280;17546;42.674;23.284;2023-07-09T06:48:27;95188.81;;;27.74;34.91
30819;BME280;17546;42.674;23.284;2023-07-09T06:50:56;95217.56;;;27.98;34.79
30819;BME280;17546;42.674;23.284;2023-07-09T06:53:22;95170.00;;;27.20;35.54
30819;BME280;17546;42.674;23.284;2023-07-09T06:55:48;95186.69;;;27.94;34.77
30819;BME280;17546;42.674;23.284;2023-07-09T06:58:16;95209.09;;;29.03;33.37
30819;BME280;17546;42.674;23.284;2023-07-09T07:00:41;95200.91;;;28.04;33.34
30819;BME280;17546;42.674;23.284;2023-07-09T07:03:08;95187.16;;;28.32;32.79
30819;BME280;17546;42.674;23.284;2023-07-09T07:05:34;95208.13;;;28.68;32.58
30819;BME280;17546;42.674;23.284;2023-07-09T07:08:03;95204.53;;;28.36;33.28
30819;BME280;17546;42.674;23.284;2023-07-09T07:10:29;95209.72;;;28.80;32.25
30819;BME280;17546;42.674;23.284;2023-07-09T07:12:55;95212.22;;;28.23;33.24
30819;BME280;17546;42.674;23.284;2023-07-09T07:15:23;95214.63;;;28.17;33.60
30819;BME280;17546;42.674;23.284;2023-07-09T07:17:48;95161.72;;;27.73;33.05
30819;BME280;17546;42.674;23.284;2023-07-09T07:20:15;95215.56;;;29.04;31.95
30819;BME280;17546;42.674;23.284;2023-07-09T07:22:41;95185.91;;;29.52;31.07
30819;BME280;17546;42.674;23.284;2023-07-09T07:25:07;95206.78;;;29.88;30.92
30819;BME280;17546;42.674;23.284;2023-07-09T07:27:34;95183.44;;;29.92;31.07
30819;BME280;17546;42.674;23.284;2023-07-09T07:30:00;95209.91;;;29.59;31.40
30819;BME280;17546;42.674;23.284;2023-07-09T07:32:25;95199.16;;;30.14;30.88
30819;BME280;17546;42.674;23.284;2023-07-09T07:34:51;95173.09;;;30.32;30.89
30819;BME280;17546;42.674;23.284;2023-07-09T07:37:20;95194.25;;;29.05;31.41
30819;BME280;17546;42.674;23.284;2023-07-09T07:39:46;95195.81;;;29.73;31.63
30819;BME280;17546;42.674;23.284;2023-07-09T07:42:12;95157.34;;;29.74;30.92
30819;BME280;17546;42.674;23.284;2023-07-09T07:44:38;95180.88;;;30.19;30.38
30819;BME280;17546;42.674;23.284;2023-07-09T07:47:04;95187.75;;;30.50;30.06
30819;BME280;17546;42.674;23.284;2023-07-09T07:49:30;95200.28;;;30.33;30.31
30819;BME280;17546;42.674;23.284;2023-07-09T07:51:56;95210.06;;;30.18;30.59
30819;BME280;17546;42.674;23.284;2023-07-09T07:54:21;95194.19;;;29.70;30.96
30819;BME280;17546;42.674;23.284;2023-07-09T07:56:47;95203.66;;;29.72;31.80
30819;BME280;17546;42.674;23.284;2023-07-09T07:59:12;95200.63;;;30.15;30.40
30819;BME280;17546;42.674;23.284;2023-07-09T08:01:39;95170.59;;;30.38;29.96
30819;BME280;17546;42.674;23.284;2023-07-09T08:04:05;95168.00;;;30.30;30.30
30819;BME280;17546;42.674;23.284;2023-07-09T08:06:30;95190.72;;;30.40;30.45
30819;BME280;17546;42.674;23.284;2023-07-09T08:08:57;95179.66;;;30.69;30.71
30819;BME280;17546;42.674;23.284;2023-07-09T08:11:24;95173.31;;;30.36;30.16
30819;BME280;17546;42.674;23.284;2023-07-09T08:13:50;95197.09;;;29.81;30.81
30819;BME280;17546;42.674;23.284;2023-07-09T08:16:16;95182.19;;;29.50;31.07
30819;BME280;17546;42.674;23.284;2023-07-09T08:18:42;95181.44;;;29.71;31.07
30819;BME280;17546;42.674;23.284;2023-07-09T08:21:07;95188.19;;;29.99;30.40
30819;BME280;17546;42.674;23.284;2023-07-09T08:23:33;95182.22;;;29.95;30.39
30819;BME280;17546;42.674;23.284;2023-07-09T08:26:00;95185.47;;;30.01;30.56
30819;BME280;17546;42.674;23.284;2023-07-09T08:28:28;95132.81;;;30.16;30.73
30819;BME280;17546;42.674;23.284;2023-07-09T08:30:54;95179.78;;;30.72;30.33
30819;BME280;17546;42.674;23.284;2023-07-09T08:33:21;95170.50;;;31.20;29.73
30819;BME280;17546;42.674;23.284;2023-07-09T08:35:49;95160.50;;;31.59;29.68
30819;BME280;17546;42.674;23.284;2023-07-09T08:38:15;95151.06;;;31.82;29.23
30819;BME280;17546;42.674;23.284;2023-07-09T08:40:40;95175.75;;;31.75;28.42
30819;BME280;17546;42.674;23.284;2023-07-09T08:46:07;95173.72;;;32.70;27.48
30819;BME280;17546;42.674;23.284;2023-07-09T08:48:38;95151.91;;;32.38;27.36
30819;BME280;17546;42.674;23.284;2023-07-09T08:54:00;95168.50;;;33.08;27.54
30819;BME280;17546;42.674;23.284;2023-07-09T08:56:27;95184.25;;;33.07;27.51
30819;BME280;17546;42.674;23.284;2023-07-09T08:58:55;95182.31;;;32.70;26.64
30819;BME280;17546;42.674;23.284;2023-07-09T09:01:27;95165.44;;;32.63;27.29
30819;BME280;17546;42.674;23.284;2023-07-09T09:04:00;95157.16;;;32.55;27.05
30819;BME280;17546;42.674;23.284;2023-07-09T09:06:30;95175.31;;;32.73;26.89
30819;BME280;17546;42.674;23.284;2023-07-09T09:09:00;95190.41;;;33.45;26.57
30819;BME280;17546;42.674;23.284;2023-07-09T09:14:19;95170.81;;;33.85;26.93
30819;BME280;17546;42.674;23.284;2023-07-09T09:16:47;95145.88;;;32.73;27.07
30819;BME280;17546;42.674;23.284;2023-07-09T09:19:38;95172.41;;;33.59;26.65
30819;BME280;17546;42.674;23.284;2023-07-09T09:22:11;95181.88;;;33.18;26.49
30819;BME280;17546;42.674;23.284;2023-07-09T09:27:28;95172.75;;;32.52;27.14
30819;BME280;17546;42.674;23.284;2023-07-09T09:29:54;95176.97;;;32.51;27.13
30819;BME280;17546;42.674;23.284;2023-07-09T09:32:41;95167.09;;;32.96;26.54
30819;BME280;17546;42.674;23.284;2023-07-09T09:35:15;95173.78;;;32.45;27.61
30819;BME280;17546;42.674;23.284;2023-07-09T09:37:46;95161.31;;;31.73;28.29
30819;BME280;17546;42.674;23.284;2023-07-09T09:40:17;95156.81;;;32.49;27.83
30819;BME280;17546;42.674;23.284;2023-07-09T09:42:43;95175.13;;;33.41;26.80
30819;BME280;17546;42.674;23.284;2023-07-09T09:45:13;95171.31;;;33.36;26.86
30819;BME280;17546;42.674;23.284;2023-07-09T09:47:40;95150.13;;;32.86;26.65
30819;BME280;17546;42.674;23.284;2023-07-09T09:50:06;95154.03;;;33.06;26.58
30819;BME280;17546;42.674;23.284;2023-07-09T09:52:31;95143.06;;;33.03;26.46
30819;BME280;17546;42.674;23.284;2023-07-09T09:55:10;95137.16;;;32.99;26.85
30819;BME280;17546;42.674;23.284;2023-07-09T09:57:36;95162.88;;;33.40;26.22
30819;BME280;17546;42.674;23.284;2023-07-09T10:00:02;95153.16;;;33.61;25.98
30819;BME280;17546;42.674;23.284;2023-07-09T10:02:30;95132.69;;;33.39;26.54
30819;BME280;17546;42.674;23.284;2023-07-09T10:04:56;95164.78;;;33.79;25.56
30819;BME280;17546;42.674;23.284;2023-07-09T10:07:33;95157.75;;;33.52;25.47
30819;BME280;17546;42.674;23.284;2023-07-09T10:10:00;95151.84;;;33.34;25.45
30819;BME280;17546;42.674;23.284;2023-07-09T10:12:41;95124.06;;;33.09;25.34
30819;BME280;17546;42.674;23.284;2023-07-09T10:18:08;95158.19;;;33.77;25.44
30819;BME280;17546;42.674;23.284;2023-07-09T10:20:45;95133.63;;;33.44;25.78
30819;BME280;17546;42.674;23.284;2023-07-09T10:23:47;95148.09;;;33.16;25.93
30819;BME280;17546;42.674;23.284;2023-07-09T10:26:27;95147.41;;;33.61;25.94
30819;BME280;17546;42.674;23.284;2023-07-09T10:31:42;95148.03;;;34.05;24.93
30819;BME280;17546;42.674;23.284;2023-07-09T10:34:42;95143.94;;;34.10;25.37
30819;BME280;17546;42.674;23.284;2023-07-09T10:39:57;95141.78;;;33.79;26.05
30819;BME280;17546;42.674;23.284;2023-07-09T10:45:40;95135.22;;;33.92;25.26
30819;BME280;17546;42.674;23.284;2023-07-09T10:51:37;95138.59;;;34.34;24.06
30819;BME280;17546;42.674;23.284;2023-07-09T10:54:37;95115.06;;;34.22;24.42
30819;BME280;17546;42.674;23.284;2023-07-09T10:57:17;95135.09;;;34.20;25.06
30819;BME280;17546;42.674;23.284;2023-07-09T10:59:46;95120.34;;;34.12;24.67
30819;BME280;17546;42.674;23.284;2023-07-09T11:02:40;95139.06;;;34.13;24.20
30819;BME280;17546;42.674;23.284;2023-07-09T11:05:06;95132.06;;;33.41;24.79
30819;BME280;17546;42.674;23.284;2023-07-09T11:07:42;95134.13;;;34.00;24.32
30819;BME280;17546;42.674;23.284;2023-07-09T11:10:37;95132.31;;;34.22;23.89
30819;BME280;17546;42.674;23.284;2023-07-09T11:13:17;95130.25;;;33.33;24.27
30819;BME280;17546;42.674;23.284;2023-07-09T11:15:48;95130.13;;;33.45;24.10
30819;BME280;17546;42.674;23.284;2023-07-09T11:18:24;95112.06;;;33.13;24.28
30819;BME280;17546;42.674;23.284;2023-07-09T11:21:04;95131.16;;;33.97;24.89
30819;BME280;17546;42.674;23.284;2023-07-09T11:23:45;95132.66;;;33.99;24.30
30819;BME280;17546;42.674;23.284;2023-07-09T11:28:55;95085.44;;;33.26;24.15
30819;BME280;17546;42.674;23.284;2023-07-09T11:31:23;95125.19;;;33.62;24.00
30819;BME280;17546;42.674;23.284;2023-07-09T11:34:01;95125.97;;;33.78;24.40
30819;BME280;17546;42.674;23.284;2023-07-09T11:36:29;95115.00;;;33.74;24.14
30819;BME280;17546;42.674;23.284;2023-07-09T11:38:55;95127.53;;;33.81;24.06
30819;BME280;17546;42.674;23.284;2023-07-09T11:46:39;95110.59;;;33.87;24.45
30819;BME280;17546;42.674;23.284;2023-07-09T11:49:07;95107.63;;;33.85;24.61
30819;BME280;17546;42.674;23.284;2023-07-09T11:51:41;95119.34;;;33.30;24.83
30819;BME280;17546;42.674;23.284;2023-07-09T11:54:11;95110.28;;;33.35;24.94
30819;BME280;17546;42.674;23.284;2023-07-09T11:56:39;95096.66;;;33.66;25.48
30819;BME280;17546;42.674;23.284;2023-07-09T11:59:05;95109.19;;;33.72;24.86
30819;BME280;17546;42.674;23.284;2023-07-09T12:01:36;95109.81;;;33.71;24.94
30819;BME280;17546;42.674;23.284;2023-07-09T12:04:05;95065.66;;;33.78;25.28
30819;BME280;17546;42.674;23.284;2023-07-09T12:06:32;95081.13;;;33.11;25.55
30819;BME280;17546;42.674;23.284;2023-07-09T12:08:58;95067.22;;;33.65;25.00
30819;BME280;17546;42.674;23.284;2023-07-09T12:11:28;95105.91;;;33.64;25.10
30819;BME280;17546;42.674;23.284;2023-07-09T12:13:54;95101.47;;;33.61;25.05
30819;BME280;17546;42.674;23.284;2023-07-09T12:16:32;95090.19;;;33.81;25.30
30819;BME280;17546;42.674;23.284;2023-07-09T12:18:58;95080.84;;;33.96;24.27
30819;BME280;17546;42.674;23.284;2023-07-09T12:21:24;95073.88;;;33.86;24.78
30819;BME280;17546;42.674;23.284;2023-07-09T12:23:54;95101.88;;;33.85;24.88
30819;BME280;17546;42.674;23.284;2023-07-09T12:26:23;95059.47;;;33.08;25.18
30819;BME280;17546;42.674;23.284;2023-07-09T12:28:57;95076.75;;;33.40;24.20
30819;BME280;17546;42.674;23.284;2023-07-09T12:31:30;95086.69;;;34.30;24.33
30819;BME280;17546;42.674;23.284;2023-07-09T12:33:56;95064.72;;;33.89;25.33
30819;BME280;17546;42.674;23.284;2023-07-09T12:36:24;95054.03;;;34.08;24.34
30819;BME280;17546;42.674;23.284;2023-07-09T12:39:02;95062.75;;;33.62;24.55
30819;BME280;17546;42.674;23.284;2023-07-09T12:41:35;95082.31;;;34.29;24.61
30819;BME280;17546;42.674;23.284;2023-07-09T12:44:01;95042.38;;;33.72;25.20
30819;BME280;17546;42.674;23.284;2023-07-09T12:46:27;95078.81;;;34.15;25.22
30819;BME280;17546;42.674;23.284;2023-07-09T12:48:55;95042.38;;;33.88;25.11
30819;BME280;17546;42.674;23.284;2023-07-09T12:51:25;95056.47;;;34.13;25.07
30819;BME280;17546;42.674;23.284;2023-07-09T12:54:11;95052.22;;;34.14;23.91
30819;BME280;17546;42.674;23.284;2023-07-09T12:56:38;95074.72;;;33.72;24.72
30819;BME280;17546;42.674;23.284;2023-07-09T12:59:16;95064.34;;;33.65;24.94
30819;BME280;17546;42.674;23.284;2023-07-09T13:01:51;95078.69;;;33.97;25.48
30819;BME280;17546;42.674;23.284;2023-07-09T13:04:33;95049.59;;;34.05;24.78
30819;BME280;17546;42.674;23.284;2023-07-09T13:07:00;95054.59;;;33.88;25.20
30819;BME280;17546;42.674;23.284;2023-07-09T13:09:26;95050.28;;;33.42;25.55
30819;BME280;17546;42.674;23.284;2023-07-09T13:11:54;95069.63;;;33.87;25.88
30819;BME280;17546;42.674;23.284;2023-07-09T13:14:25;95066.84;;;33.73;26.29
30819;BME280;17546;42.674;23.284;2023-07-09T13:16:51;95043.44;;;33.49;26.42
30819;BME280;17546;42.674;23.284;2023-07-09T13:19:17;95051.25;;;33.62;26.13
30819;BME280;17546;42.674;23.284;2023-07-09T13:21:43;95073.22;;;33.26;26.34
30819;BME280;17546;42.674;23.284;2023-07-09T13:24:32;95075.56;;;33.45;26.64
30819;BME280;17546;42.674;23.284;2023-07-09T13:27:01;95037.13;;;32.49;27.54
30819;BME280;17546;42.674;23.284;2023-07-09T13:29:27;95073.00;;;33.51;26.97
30819;BME280;17546;42.674;23.284;2023-07-09T13:31:53;95078.53;;;32.88;27.03
30819;BME280;17546;42.674;23.284;2023-07-09T13:34:27;95041.66;;;33.26;26.52